Oakham, United Kingdom
Current Conditions -  °F | °C
As of 5:50 AM on Sunday 23 Nov 2014 (Local Time) from EGXT Reporting Station
Moderate Rain Moderate Rain  
Wind Chill: 44°   Ceiling: 4000
Heat Index: 48°   Visibility: 5mi
Dew Point: 46°   Wind: 9mph
Humidity: 93%   Direction: 320°NW
Pressure: 29.97"   Gusts: NA
Location:  52.67°N, 0.73°W
Report Text: EGXT 230550Z AUTO 32008KT 8000 RA BKN040/// BKN049/// 09/08 Q1015
Loading
Personal Weather Stations






























Interactive Weather Map New forecast layout! Learn more

10-Day Weather Forecast

Advertisements
Track Severe Weather on mobile